sensor_id;sensor_type;location;lat;lon;timestamp;pressure;altitude;pressure_sealevel;temperature
49785;BMP280;35679;38.732;-121.358;2022-08-19T00:00:23;100469.88;;;31.71
49785;BMP280;35679;38.732;-121.358;2022-08-19T00:03:12;100470.09;;;31.75
49785;BMP280;35679;38.732;-121.358;2022-08-19T00:06:01;100469.44;;;31.78
49785;BMP280;35679;38.732;-121.358;2022-08-19T00:08:52;100467.22;;;31.80
49785;BMP280;35679;38.732;-121.358;2022-08-19T00:11:42;100470.41;;;31.82
49785;BMP280;35679;38.732;-121.358;2022-08-19T00:14:32;100471.72;;;31.84
49785;BMP280;35679;38.732;-121.358;2022-08-19T00:17:21;100473.03;;;31.87
49785;BMP280;35679;38.732;-121.358;2022-08-19T00:20:13;100471.63;;;31.89
49785;BMP280;35679;38.732;-121.358;2022-08-19T00:23:06;100464.72;;;31.92
49785;BMP280;35679;38.732;-121.358;2022-08-19T00:25:55;100469.56;;;31.94
49785;BMP280;35679;38.732;-121.358;2022-08-19T00:28:45;100470.06;;;31.96
49785;BMP280;35679;38.732;-121.358;2022-08-19T00:31:35;100471.34;;;31.99
49785;BMP280;35679;38.732;-121.358;2022-08-19T00:34:26;100465.28;;;32.02
49785;BMP280;35679;38.732;-121.358;2022-08-19T00:37:20;100468.81;;;32.02
49785;BMP280;35679;38.732;-121.358;2022-08-19T00:40:12;100466.59;;;32.04
49785;BMP280;35679;38.732;-121.358;2022-08-19T00:43:08;100466.75;;;32.08
49785;BMP280;35679;38.732;-121.358;2022-08-19T00:45:58;100469.16;;;32.09
49785;BMP280;35679;38.732;-121.358;2022-08-19T00:48:47;100465.00;;;32.12
49785;BMP280;35679;38.732;-121.358;2022-08-19T00:51:37;100464.69;;;32.13
49785;BMP280;35679;38.732;-121.358;2022-08-19T00:54:27;100462.47;;;32.15
49785;BMP280;35679;38.732;-121.358;2022-08-19T00:57:27;100451.53;;;32.15
49785;BMP280;35679;38.732;-121.358;2022-08-19T01:00:18;100457.50;;;32.17
49785;BMP280;35679;38.732;-121.358;2022-08-19T01:03:11;100459.91;;;32.19
49785;BMP280;35679;38.732;-121.358;2022-08-19T01:06:06;100457.97;;;32.19
49785;BMP280;35679;38.732;-121.358;2022-08-19T01:08:55;100453.81;;;32.22
49785;BMP280;35679;38.732;-121.358;2022-08-19T01:11:45;100448.34;;;32.22
49785;BMP280;35679;38.732;-121.358;2022-08-19T01:14:36;100452.38;;;32.24
49785;BMP280;35679;38.732;-121.358;2022-08-19T01:17:27;100438.72;;;32.24
49785;BMP280;35679;38.732;-121.358;2022-08-19T01:20:20;100450.16;;;32.26
49785;BMP280;35679;38.732;-121.358;2022-08-19T01:23:10;100444.69;;;32.26
49785;BMP280;35679;38.732;-121.358;2022-08-19T01:26:00;100441.63;;;32.28
49785;BMP280;35679;38.732;-121.358;2022-08-19T01:28:53;100441.63;;;32.28
49785;BMP280;35679;38.732;-121.358;2022-08-19T01:31:47;100444.88;;;32.30
49785;BMP280;35679;38.732;-121.358;2022-08-19T01:34:38;100446.44;;;32.31
49785;BMP280;35679;38.732;-121.358;2022-08-19T01:37:27;100437.47;;;32.30
49785;BMP280;35679;38.732;-121.358;2022-08-19T01:40:21;100445.34;;;32.32
49785;BMP280;35679;38.732;-121.358;2022-08-19T01:43:10;100433.28;;;32.33
49785;BMP280;35679;38.732;-121.358;2022-08-19T01:46:00;100444.22;;;32.33
49785;BMP280;35679;38.732;-121.358;2022-08-19T01:48:50;100443.91;;;32.34
49785;BMP280;35679;38.732;-121.358;2022-08-19T01:51:40;100434.59;;;32.35
49785;BMP280;35679;38.732;-121.358;2022-08-19T01:54:29;100437.31;;;32.35
49785;BMP280;35679;38.732;-121.358;2022-08-19T01:57:19;100432.69;;;32.36
49785;BMP280;35679;38.732;-121.358;2022-08-19T02:00:11;100426.41;;;32.35
49785;BMP280;35679;38.732;-121.358;2022-08-19T02:03:02;100432.69;;;32.36
49785;BMP280;35679;38.732;-121.358;2022-08-19T02:05:56;100429.13;;;32.35
49785;BMP280;35679;38.732;-121.358;2022-08-19T02:08:46;100438.16;;;32.36
49785;BMP280;35679;38.732;-121.358;2022-08-19T02:11:38;100435.41;;;32.36
49785;BMP280;35679;38.732;-121.358;2022-08-19T02:14:28;100443.59;;;32.36
49785;BMP280;35679;38.732;-121.358;2022-08-19T02:17:17;100438.16;;;32.36
49785;BMP280;35679;38.732;-121.358;2022-08-19T02:20:08;100438.44;;;32.34
49785;BMP280;35679;38.732;-121.358;2022-08-19T02:22:57;100442.78;;;32.35
49785;BMP280;35679;38.732;-121.358;2022-08-19T02:25:48;100445.00;;;32.33
49785;BMP280;35679;38.732;-121.358;2022-08-19T02:28:37;100438.44;;;32.34
49785;BMP280;35679;38.732;-121.358;2022-08-19T02:31:29;100445.34;;;32.32
49785;BMP280;35679;38.732;-121.358;2022-08-19T02:34:19;100445.66;;;32.30
49785;BMP280;35679;38.732;-121.358;2022-08-19T02:37:09;100450.31;;;32.30
49785;BMP280;35679;38.732;-121.358;2022-08-19T02:40:22;100446.78;;;32.29
49785;BMP280;35679;38.732;-121.358;2022-08-19T02:43:11;100447.09;;;32.28
49785;BMP280;35679;38.732;-121.358;2022-08-19T02:46:01;100450.94;;;32.27
49785;BMP280;35679;38.732;-121.358;2022-08-19T02:48:53;100452.06;;;32.26
49785;BMP280;35679;38.732;-121.358;2022-08-19T02:51:45;100451.25;;;32.25
49785;BMP280;35679;38.732;-121.358;2022-08-19T02:54:34;100458.94;;;32.23
49785;BMP280;35679;38.732;-121.358;2022-08-19T02:57:24;100452.69;;;32.23
49785;BMP280;35679;38.732;-121.358;2022-08-19T03:00:14;100465.56;;;32.22
49785;BMP280;35679;38.732;-121.358;2022-08-19T03:03:04;100458.47;;;32.21
49785;BMP280;35679;38.732;-121.358;2022-08-19T03:06:07;100452.50;;;32.19
49785;BMP280;35679;38.732;-121.358;2022-08-19T03:08:57;100474.34;;;32.19
49785;BMP280;35679;38.732;-121.358;2022-08-19T03:11:47;100470.00;;;32.18
49785;BMP280;35679;38.732;-121.358;2022-08-19T03:14:39;100467.59;;;32.17
49785;BMP280;35679;38.732;-121.358;2022-08-19T03:17:29;100476.13;;;32.15
49785;BMP280;35679;38.732;-121.358;2022-08-19T03:20:18;100480.78;;;32.15
49785;BMP280;35679;38.732;-121.358;2022-08-19T03:23:07;100490.09;;;32.14
49785;BMP280;35679;38.732;-121.358;2022-08-19T03:25:57;100494.72;;;32.13
49785;BMP280;35679;38.732;-121.358;2022-08-19T03:29:04;100500.50;;;32.12
49785;BMP280;35679;38.732;-121.358;2022-08-19T03:31:55;100511.22;;;32.08
49785;BMP280;35679;38.732;-121.358;2022-08-19T03:34:44;100506.88;;;32.07
49785;BMP280;35679;38.732;-121.358;2022-08-19T03:37:34;100513.50;;;32.06
49785;BMP280;35679;38.732;-121.358;2022-08-19T03:40:23;100521.19;;;32.04
49785;BMP280;35679;38.732;-121.358;2022-08-19T03:43:13;100518.75;;;32.03
49785;BMP280;35679;38.732;-121.358;2022-08-19T03:46:10;100529.16;;;32.01
49785;BMP280;35679;38.732;-121.358;2022-08-19T03:49:02;100534.13;;;31.99
49785;BMP280;35679;38.732;-121.358;2022-08-19T03:52:01;100535.25;;;31.98
49785;BMP280;35679;38.732;-121.358;2022-08-19T03:54:50;100533.94;;;31.95
49785;BMP280;35679;38.732;-121.358;2022-08-19T03:57:40;100530.72;;;31.93
49785;BMP280;35679;38.732;-121.358;2022-08-19T04:00:30;100533.75;;;31.92
49785;BMP280;35679;38.732;-121.358;2022-08-19T04:03:19;100533.25;;;31.90
49785;BMP280;35679;38.732;-121.358;2022-08-19T04:06:18;100539.34;;;31.87
49785;BMP280;35679;38.732;-121.358;2022-08-19T04:09:11;100538.03;;;31.85
49785;BMP280;35679;38.732;-121.358;2022-08-19T04:12:00;100538.34;;;31.83
49785;BMP280;35679;38.732;-121.358;2022-08-19T04:14:50;100533.38;;;31.85
49785;BMP280;35679;38.732;-121.358;2022-08-19T04:17:39;100539.78;;;31.81
49785;BMP280;35679;38.732;-121.358;2022-08-19T04:20:29;100537.19;;;31.76
49785;BMP280;35679;38.732;-121.358;2022-08-19T04:23:19;100540.03;;;31.71
49785;BMP280;35679;38.732;-121.358;2022-08-19T04:26:16;100546.28;;;31.71
49785;BMP280;35679;38.732;-121.358;2022-08-19T04:29:10;100549.25;;;31.61
49785;BMP280;35679;38.732;-121.358;2022-08-19T04:32:00;100547.31;;;31.62
49785;BMP280;35679;38.732;-121.358;2022-08-19T04:34:56;100555.03;;;31.60
49785;BMP280;35679;38.732;-121.358;2022-08-19T04:38:05;100554.00;;;31.56
49785;BMP280;35679;38.732;-121.358;2022-08-19T04:40:54;100561.50;;;31.50
49785;BMP280;35679;38.732;-121.358;2022-08-19T04:44:02;100563.94;;;31.52
49785;BMP280;35679;38.732;-121.358;2022-08-19T04:46:52;100570.81;;;31.49
49785;BMP280;35679;38.732;-121.358;2022-08-19T04:49:42;100572.81;;;31.44
49785;BMP280;35679;38.732;-121.358;2022-08-19T04:52:31;100573.31;;;31.46
49785;BMP280;35679;38.732;-121.358;2022-08-19T04:55:21;100578.59;;;31.42
49785;BMP280;35679;38.732;-121.358;2022-08-19T04:58:10;100575.03;;;31.42
49785;BMP280;35679;38.732;-121.358;2022-08-19T05:00:59;100580.72;;;31.32
49785;BMP280;35679;38.732;-121.358;2022-08-19T05:03:49;100572.03;;;31.30
49785;BMP280;35679;38.732;-121.358;2022-08-19T05:06:39;100579.84;;;31.23
49785;BMP280;35679;38.732;-121.358;2022-08-19T05:09:29;100577.31;;;31.26
49785;BMP280;35679;38.732;-121.358;2022-08-19T05:12:39;100569.41;;;31.25
49785;BMP280;35679;38.732;-121.358;2022-08-19T05:15:29;100567.31;;;31.22
49785;BMP280;35679;38.732;-121.358;2022-08-19T05:18:18;100571.78;;;31.18
49785;BMP280;35679;38.732;-121.358;2022-08-19T05:21:28;100568.53;;;31.16
49785;BMP280;35679;38.732;-121.358;2022-08-19T05:24:36;100576.03;;;31.11
49785;BMP280;35679;38.732;-121.358;2022-08-19T05:27:46;100572.00;;;31.08
49785;BMP280;35679;38.732;-121.358;2022-08-19T05:30:35;100572.88;;;31.04
49785;BMP280;35679;38.732;-121.358;2022-08-19T05:33:34;100580.84;;;31.00
49785;BMP280;35679;38.732;-121.358;2022-08-19T05:36:26;100576.03;;;30.97
49785;BMP280;35679;38.732;-121.358;2022-08-19T05:39:19;100581.56;;;30.92
49785;BMP280;35679;38.732;-121.358;2022-08-19T05:42:11;100578.31;;;30.90
49785;BMP280;35679;38.732;-121.358;2022-08-19T05:45:00;100592.03;;;30.85
49785;BMP280;35679;38.732;-121.358;2022-08-19T05:47:50;100593.44;;;30.83
49785;BMP280;35679;38.732;-121.358;2022-08-19T05:50:41;100587.31;;;30.77
49785;BMP280;35679;38.732;-121.358;2022-08-19T05:53:30;100596.06;;;30.74
49785;BMP280;35679;38.732;-121.358;2022-08-19T05:56:20;100591.25;;;30.71
49785;BMP280;35679;38.732;-121.358;2022-08-19T05:59:10;100597.28;;;30.68
49785;BMP280;35679;38.732;-121.358;2022-08-19T06:02:00;100589.19;;;30.63
49785;BMP280;35679;38.732;-121.358;2022-08-19T06:04:50;100588.19;;;30.59
49785;BMP280;35679;38.732;-121.358;2022-08-19T06:07:40;100585.56;;;30.55
49785;BMP280;35679;38.732;-121.358;2022-08-19T06:10:29;100585.03;;;30.53
49785;BMP280;35679;38.732;-121.358;2022-08-19T06:13:20;100591.41;;;30.48
49785;BMP280;35679;38.732;-121.358;2022-08-19T06:16:09;100577.59;;;30.45
49785;BMP280;35679;38.732;-121.358;2022-08-19T06:19:02;100579.28;;;30.41
49785;BMP280;35679;38.732;-121.358;2022-08-19T06:21:53;100578.22;;;30.37
49785;BMP280;35679;38.732;-121.358;2022-08-19T06:24:42;100579.63;;;30.34
49785;BMP280;35679;38.732;-121.358;2022-08-19T06:27:31;100584.06;;;30.30
49785;BMP280;35679;38.732;-121.358;2022-08-19T06:30:22;100593.13;;;30.26
49785;BMP280;35679;38.732;-121.358;2022-08-19T06:33:12;100593.72;;;30.23
49785;BMP280;35679;38.732;-121.358;2022-08-19T06:36:02;100598.16;;;30.19
49785;BMP280;35679;38.732;-121.358;2022-08-19T06:38:51;100591.97;;;30.13
49785;BMP280;35679;38.732;-121.358;2022-08-19T06:41:44;100586.94;;;30.07
49785;BMP280;35679;38.732;-121.358;2022-08-19T06:44:41;100579.38;;;30.04
49785;BMP280;35679;38.732;-121.358;2022-08-19T06:47:36;100581.03;;;30.00
49785;BMP280;35679;38.732;-121.358;2022-08-19T06:50:25;100577.31;;;29.96
49785;BMP280;35679;38.732;-121.358;2022-08-19T06:53:14;100572.78;;;29.91
49785;BMP280;35679;38.732;-121.358;2022-08-19T06:56:04;100578.00;;;29.88
49785;BMP280;35679;38.732;-121.358;2022-08-19T06:58:53;100576.13;;;29.84
49785;BMP280;35679;38.732;-121.358;2022-08-19T07:01:49;100573.19;;;29.80
49785;BMP280;35679;38.732;-121.358;2022-08-19T07:04:38;100569.44;;;29.76
49785;BMP280;35679;38.732;-121.358;2022-08-19T07:07:29;100573.88;;;29.72
49785;BMP280;35679;38.732;-121.358;2022-08-19T07:10:20;100567.41;;;29.68
49785;BMP280;35679;38.732;-121.358;2022-08-19T07:13:13;100567.19;;;29.65
49785;BMP280;35679;38.732;-121.358;2022-08-19T07:16:15;100574.31;;;29.61
49785;BMP280;35679;38.732;-121.358;2022-08-19T07:19:17;100563.22;;;29.57
49785;BMP280;35679;38.732;-121.358;2022-08-19T07:22:08;100565.19;;;29.52
49785;BMP280;35679;38.732;-121.358;2022-08-19T07:25:00;100564.16;;;29.48
49785;BMP280;35679;38.732;-121.358;2022-08-19T07:27:51;100563.16;;;29.44
49785;BMP280;35679;38.732;-121.358;2022-08-19T07:30:44;100568.06;;;29.42
49785;BMP280;35679;38.732;-121.358;2022-08-19T07:33:34;100568.97;;;29.37
49785;BMP280;35679;38.732;-121.358;2022-08-19T07:36:27;100559.47;;;29.35
49785;BMP280;35679;38.732;-121.358;2022-08-19T07:39:32;100560.88;;;29.27
49785;BMP280;35679;38.732;-121.358;2022-08-19T07:42:23;100561.19;;;29.26
49785;BMP280;35679;38.732;-121.358;2022-08-19T07:45:14;100573.44;;;29.23
49785;BMP280;35679;38.732;-121.358;2022-08-19T07:48:06;100565.66;;;29.17
49785;BMP280;35679;38.732;-121.358;2022-08-19T07:51:02;100561.09;;;29.13
49785;BMP280;35679;38.732;-121.358;2022-08-19T07:53:53;100564.41;;;29.10
49785;BMP280;35679;38.732;-121.358;2022-08-19T07:56:44;100562.25;;;29.07
49785;BMP280;35679;38.732;-121.358;2022-08-19T07:59:39;100558.22;;;29.04
49785;BMP280;35679;38.732;-121.358;2022-08-19T08:02:31;100555.28;;;29.01
49785;BMP280;35679;38.732;-121.358;2022-08-19T08:05:20;100559.97;;;28.95
49785;BMP280;35679;38.732;-121.358;2022-08-19T08:08:32;100552.72;;;28.91
49785;BMP280;35679;38.732;-121.358;2022-08-19T08:12:06;100552.19;;;28.89
49785;BMP280;35679;38.732;-121.358;2022-08-19T08:15:21;100550.31;;;28.84
49785;BMP280;35679;38.732;-121.358;2022-08-19T08:18:12;100543.56;;;28.82
49785;BMP280;35679;38.732;-121.358;2022-08-19T08:21:04;100542.00;;;28.76
49785;BMP280;35679;38.732;-121.358;2022-08-19T08:23:56;100536.03;;;28.74
49785;BMP280;35679;38.732;-121.358;2022-08-19T08:26:53;100543.16;;;28.70
49785;BMP280;35679;38.732;-121.358;2022-08-19T08:29:46;100535.56;;;28.67
49785;BMP280;35679;38.732;-121.358;2022-08-19T08:32:40;100534.84;;;28.61
49785;BMP280;35679;38.732;-121.358;2022-08-19T08:35:32;100532.91;;;28.62
49785;BMP280;35679;38.732;-121.358;2022-08-19T08:38:25;100534.88;;;28.56
49785;BMP280;35679;38.732;-121.358;2022-08-19T08:41:37;100521.38;;;28.52
49785;BMP280;35679;38.732;-121.358;2022-08-19T08:47:36;100526.84;;;28.47
49785;BMP280;35679;38.732;-121.358;2022-08-19T08:50:38;100525.00;;;28.42
49785;BMP280;35679;38.732;-121.358;2022-08-19T08:53:31;100530.97;;;28.39
49785;BMP280;35679;38.732;-121.358;2022-08-19T08:56:28;100521.81;;;28.35
49785;BMP280;35679;38.732;-121.358;2022-08-19T08:59:30;100525.91;;;28.33
49785;BMP280;35679;38.732;-121.358;2022-08-19T09:02:23;100524.56;;;28.30
49785;BMP280;35679;38.732;-121.358;2022-08-19T09:05:14;100527.88;;;28.27
49785;BMP280;35679;38.732;-121.358;2022-08-19T09:11:32;100526.59;;;28.20
49785;BMP280;35679;38.732;-121.358;2022-08-19T09:14:52;100526.06;;;28.18
49785;BMP280;35679;38.732;-121.358;2022-08-19T09:17:43;100530.72;;;28.12
49785;BMP280;35679;38.732;-121.358;2022-08-19T09:20:37;100527.47;;;28.10
49785;BMP280;35679;38.732;-121.358;2022-08-19T09:23:30;100529.63;;;28.08
49785;BMP280;35679;38.732;-121.358;2022-08-19T09:26:24;100525.09;;;28.04
49785;BMP280;35679;38.732;-121.358;2022-08-19T09:29:35;100521.03;;;28.01
49785;BMP280;35679;38.732;-121.358;2022-08-19T09:32:28;100524.31;;;27.98
49785;BMP280;35679;38.732;-121.358;2022-08-19T09:35:26;100532.22;;;27.95
49785;BMP280;35679;38.732;-121.358;2022-08-19T09:38:41;100528.16;;;27.92
49785;BMP280;35679;38.732;-121.358;2022-08-19T09:41:32;100521.13;;;27.91
49785;BMP280;35679;38.732;-121.358;2022-08-19T09:44:24;100526.59;;;27.86
49785;BMP280;35679;38.732;-121.358;2022-08-19T09:47:16;100525.28;;;27.84
49785;BMP280;35679;38.732;-121.358;2022-08-19T09:50:11;100525.81;;;27.81
49785;BMP280;35679;38.732;-121.358;2022-08-19T09:53:04;100521.78;;;27.79
49785;BMP280;35679;38.732;-121.358;2022-08-19T09:55:57;100522.34;;;27.76
49785;BMP280;35679;38.732;-121.358;2022-08-19T09:58:47;100525.63;;;27.73
49785;BMP280;35679;38.732;-121.358;2022-08-19T10:01:39;100516.16;;;27.70
49785;BMP280;35679;38.732;-121.358;2022-08-19T10:04:35;100514.81;;;27.68
49785;BMP280;35679;38.732;-121.358;2022-08-19T10:07:43;100513.75;;;27.64
49785;BMP280;35679;38.732;-121.358;2022-08-19T10:10:41;100519.22;;;27.59
49785;BMP280;35679;38.732;-121.358;2022-08-19T10:13:44;100517.31;;;27.59
49785;BMP280;35679;38.732;-121.358;2022-08-19T10:16:37;100518.16;;;27.55
49785;BMP280;35679;38.732;-121.358;2022-08-19T10:19:30;100524.38;;;27.55
49785;BMP280;35679;38.732;-121.358;2022-08-19T10:22:25;100511.69;;;27.51
49785;BMP280;35679;38.732;-121.358;2022-08-19T10:25:15;100515.72;;;27.48
49785;BMP280;35679;38.732;-121.358;2022-08-19T10:28:06;100515.50;;;27.45
49785;BMP280;35679;38.732;-121.358;2022-08-19T10:30:57;100517.13;;;27.41
49785;BMP280;35679;38.732;-121.358;2022-08-19T10:33:48;100511.22;;;27.39
49785;BMP280;35679;38.732;-121.358;2022-08-19T10:36:40;100510.16;;;27.35
49785;BMP280;35679;38.732;-121.358;2022-08-19T10:39:46;100513.41;;;27.32
49785;BMP280;35679;38.732;-121.358;2022-08-19T10:42:37;100513.16;;;27.28
49785;BMP280;35679;38.732;-121.358;2022-08-19T10:45:33;100524.28;;;27.27
49785;BMP280;35679;38.732;-121.358;2022-08-19T10:48:41;100531.63;;;27.26
49785;BMP280;35679;38.732;-121.358;2022-08-19T10:51:31;100526.50;;;27.20
49785;BMP280;35679;38.732;-121.358;2022-08-19T10:54:40;100537.09;;;27.17
49785;BMP280;35679;38.732;-121.358;2022-08-19T10:57:55;100526.53;;;27.15
49785;BMP280;35679;38.732;-121.358;2022-08-19T11:01:00;100534.41;;;27.12
49785;BMP280;35679;38.732;-121.358;2022-08-19T11:04:41;100526.03;;;27.08
49785;BMP280;35679;38.732;-121.358;2022-08-19T11:07:52;100529.81;;;27.07
49785;BMP280;35679;38.732;-121.358;2022-08-19T11:11:20;100537.94;;;27.07
49785;BMP280;35679;38.732;-121.358;2022-08-19T11:14:44;100535.56;;;27.01
49785;BMP280;35679;38.732;-121.358;2022-08-19T11:17:37;100525.78;;;26.95
49785;BMP280;35679;38.732;-121.358;2022-08-19T11:20:41;100534.22;;;26.93
49785;BMP280;35679;38.732;-121.358;2022-08-19T11:23:56;100521.75;;;26.92
49785;BMP280;35679;38.732;-121.358;2022-08-19T11:26:52;100524.75;;;26.91
49785;BMP280;35679;38.732;-121.358;2022-08-19T11:29:47;100526.09;;;26.88
49785;BMP280;35679;38.732;-121.358;2022-08-19T11:32:39;100528.56;;;26.85
49785;BMP280;35679;38.732;-121.358;2022-08-19T11:35:39;100532.06;;;26.85
49785;BMP280;35679;38.732;-121.358;2022-08-19T11:38:42;100528.84;;;26.83
49785;BMP280;35679;38.732;-121.358;2022-08-19T11:41:34;100525.88;;;26.80
49785;BMP280;35679;38.732;-121.358;2022-08-19T11:44:28;100526.41;;;26.77
49785;BMP280;35679;38.732;-121.358;2022-08-19T11:47:24;100519.66;;;26.74
49785;BMP280;35679;38.732;-121.358;2022-08-19T11:50:21;100520.22;;;26.71
49785;BMP280;35679;38.732;-121.358;2022-08-19T11:53:18;100521.84;;;26.67
49785;BMP280;35679;38.732;-121.358;2022-08-19T11:56:17;100526.16;;;26.68
49785;BMP280;35679;38.732;-121.358;2022-08-19T11:59:22;100525.09;;;26.64
49785;BMP280;35679;38.732;-121.358;2022-08-19T12:02:21;100525.13;;;26.59
49785;BMP280;35679;38.732;-121.358;2022-08-19T12:05:56;100524.31;;;26.59
49785;BMP280;35679;38.732;-121.358;2022-08-19T12:08:55;100531.09;;;26.56
49785;BMP280;35679;38.732;-121.358;2022-08-19T12:11:51;100522.44;;;26.54
49785;BMP280;35679;38.732;-121.358;2022-08-19T12:15:24;100520.28;;;26.51
49785;BMP280;35679;38.732;-121.358;2022-08-19T12:18:42;100524.09;;;26.46
49785;BMP280;35679;38.732;-121.358;2022-08-19T12:21:40;100526.25;;;26.44
49785;BMP280;35679;38.732;-121.358;2022-08-19T12:24:47;100535.72;;;26.41
49785;BMP280;35679;38.732;-121.358;2022-08-19T12:27:42;100533.56;;;26.38
49785;BMP280;35679;38.732;-121.358;2022-08-19T12:30:47;100530.88;;;26.38
49785;BMP280;35679;38.732;-121.358;2022-08-19T12:33:59;100532.72;;;26.33
49785;BMP280;35679;38.732;-121.358;2022-08-19T12:36:52;100533.28;;;26.35
49785;BMP280;35679;38.732;-121.358;2022-08-19T12:39:44;100534.94;;;26.26
49785;BMP280;35679;38.732;-121.358;2022-08-19T12:42:35;100528.41;;;26.27
49785;BMP280;35679;38.732;-121.358;2022-08-19T12:45:32;100528.41;;;26.27
49785;BMP280;35679;38.732;-121.358;2022-08-19T12:48:38;100533.31;;;26.20
49785;BMP280;35679;38.732;-121.358;2022-08-19T12:51:31;100530.06;;;26.18
49785;BMP280;35679;38.732;-121.358;2022-08-19T12:54:23;100532.47;;;26.19
49785;BMP280;35679;38.732;-121.358;2022-08-19T12:57:13;100532.75;;;26.18
49785;BMP280;35679;38.732;-121.358;2022-08-19T13:00:16;100533.03;;;26.11
49785;BMP280;35679;38.732;-121.358;2022-08-19T13:03:07;100535.47;;;26.08
49785;BMP280;35679;38.732;-121.358;2022-08-19T13:06:02;100534.41;;;26.09
49785;BMP280;35679;38.732;-121.358;2022-08-19T13:09:00;100540.09;;;26.07
49785;BMP280;35679;38.732;-121.358;2022-08-19T13:11:49;100535.47;;;26.08
49785;BMP280;35679;38.732;-121.358;2022-08-19T13:14:39;100544.16;;;26.05
49785;BMP280;35679;38.732;-121.358;2022-08-19T13:17:30;100534.69;;;26.02
49785;BMP280;35679;38.732;-121.358;2022-08-19T13:20:20;100540.09;;;25.97
49785;BMP280;35679;38.732;-121.358;2022-08-19T13:23:10;100546.59;;;25.96
49785;BMP280;35679;38.732;-121.358;2022-08-19T13:26:08;100536.84;;;25.95
49785;BMP280;35679;38.732;-121.358;2022-08-19T13:29:22;100538.19;;;25.93
49785;BMP280;35679;38.732;-121.358;2022-08-19T13:32:32;100542.53;;;25.89
49785;BMP280;35679;38.732;-121.358;2022-08-19T13:35:56;100543.06;;;25.86
49785;BMP280;35679;38.732;-121.358;2022-08-19T13:38:46;100541.44;;;25.85
49785;BMP280;35679;38.732;-121.358;2022-08-19T13:41:36;100538.72;;;25.85
49785;BMP280;35679;38.732;-121.358;2022-08-19T13:44:27;100532.78;;;25.83
49785;BMP280;35679;38.732;-121.358;2022-08-19T13:47:20;100546.59;;;25.82
49785;BMP280;35679;38.732;-121.358;2022-08-19T13:50:14;100547.94;;;25.79
49785;BMP280;35679;38.732;-121.358;2022-08-19T13:53:04;100541.69;;;25.79
49785;BMP280;35679;38.732;-121.358;2022-08-19T13:55:54;100536.28;;;25.74
49785;BMP280;35679;38.732;-121.358;2022-08-19T13:58:44;100549.00;;;25.78
49785;BMP280;35679;38.732;-121.358;2022-08-19T14:01:35;100556.53;;;25.71
49785;BMP280;35679;38.732;-121.358;2022-08-19T14:04:25;100549.00;;;25.73
49785;BMP280;35679;38.732;-121.358;2022-08-19T14:07:14;100556.53;;;25.71
49785;BMP280;35679;38.732;-121.358;2022-08-19T14:10:09;100559.50;;;25.70
49785;BMP280;35679;38.732;-121.358;2022-08-19T14:13:01;100555.72;;;25.66
49785;BMP280;35679;38.732;-121.358;2022-08-19T14:15:51;100568.69;;;25.64
49785;BMP280;35679;38.732;-121.358;2022-08-19T14:18:42;100571.13;;;25.65
49785;BMP280;35679;38.732;-121.358;2022-08-19T14:21:31;100573.28;;;25.63
49785;BMP280;35679;38.732;-121.358;2022-08-19T14:24:28;100575.22;;;25.73
49785;BMP280;35679;38.732;-121.358;2022-08-19T14:27:17;100575.50;;;25.81
49785;BMP280;35679;38.732;-121.358;2022-08-19T14:30:11;100578.47;;;25.84
49785;BMP280;35679;38.732;-121.358;2022-08-19T14:33:02;100575.50;;;25.86
49785;BMP280;35679;38.732;-121.358;2022-08-19T14:35:51;100577.13;;;25.87
49785;BMP280;35679;38.732;-121.358;2022-08-19T14:38:47;100582.00;;;25.90
49785;BMP280;35679;38.732;-121.358;2022-08-19T14:41:40;100580.91;;;25.91
49785;BMP280;35679;38.732;-121.358;2022-08-19T14:44:30;100578.19;;;25.91
49785;BMP280;35679;38.732;-121.358;2022-08-19T14:47:20;100591.47;;;25.92
49785;BMP280;35679;38.732;-121.358;2022-08-19T14:50:11;100588.50;;;25.94
49785;BMP280;35679;38.732;-121.358;2022-08-19T14:53:07;100595.53;;;25.95
49785;BMP280;35679;38.732;-121.358;2022-08-19T14:56:00;100589.84;;;25.96
49785;BMP280;35679;38.732;-121.358;2022-08-19T14:58:50;100582.53;;;25.97
49785;BMP280;35679;38.732;-121.358;2022-08-19T15:01:40;100581.44;;;25.98
49785;BMP280;35679;38.732;-121.358;2022-08-19T15:04:29;100581.19;;;25.99
49785;BMP280;35679;38.732;-121.358;2022-08-19T15:07:20;100573.06;;;25.99
49785;BMP280;35679;38.732;-121.358;2022-08-19T15:10:15;100586.31;;;26.01
49785;BMP280;35679;38.732;-121.358;2022-08-19T15:13:04;100581.72;;;26.01
49785;BMP280;35679;38.732;-121.358;2022-08-19T15:15:55;100578.75;;;26.03
49785;BMP280;35679;38.732;-121.358;2022-08-19T15:18:49;100584.72;;;26.05
49785;BMP280;35679;38.732;-121.358;2022-08-19T15:21:38;100579.31;;;26.05
49785;BMP280;35679;38.732;-121.358;2022-08-19T15:24:28;100579.03;;;26.06
49785;BMP280;35679;38.732;-121.358;2022-08-19T15:27:17;100581.44;;;26.08
49785;BMP280;35679;38.732;-121.358;2022-08-19T15:30:08;100581.44;;;26.08
49785;BMP280;35679;38.732;-121.358;2022-08-19T15:32:58;100582.00;;;26.10
49785;BMP280;35679;38.732;-121.358;2022-08-19T15:35:48;100578.22;;;26.11
49785;BMP280;35679;38.732;-121.358;2022-08-19T15:38:39;100576.03;;;26.13
49785;BMP280;35679;38.732;-121.358;2022-08-19T15:41:33;100582.28;;;26.13
49785;BMP280;35679;38.732;-121.358;2022-08-19T15:44:23;100586.84;;;26.13
49785;BMP280;35679;38.732;-121.358;2022-08-19T15:47:13;100589.28;;;26.14
49785;BMP280;35679;38.732;-121.358;2022-08-19T15:50:12;100587.94;;;26.17
49785;BMP280;35679;38.732;-121.358;2022-08-19T15:53:07;100593.34;;;26.17
49785;BMP280;35679;38.732;-121.358;2022-08-19T15:55:57;100597.94;;;26.16